createdAt,value
2022-08-02T00:00:00.430Z,22.04
2022-08-02T00:02:27.135Z,21.99
2022-08-02T00:05:00.442Z,21.92
2022-08-02T00:07:27.241Z,21.99
2022-08-02T00:09:54.121Z,22.00
2022-08-02T00:12:27.446Z,22.02
2022-08-02T00:14:55.132Z,22.01
2022-08-02T00:17:28.446Z,21.94
2022-08-02T00:20:01.420Z,21.85
2022-08-02T00:22:41.551Z,21.79
2022-08-02T00:25:16.442Z,21.70
2022-08-02T00:27:43.613Z,21.65
2022-08-02T00:30:11.176Z,21.61
2022-08-02T00:32:44.432Z,21.59
2022-08-02T00:35:11.219Z,21.58
2022-08-02T00:37:46.442Z,21.58
2022-08-02T00:40:13.320Z,21.55
2022-08-02T00:42:47.490Z,21.52
2022-08-02T00:45:20.438Z,21.61
2022-08-02T00:48:15.437Z,21.66
2022-08-02T00:50:42.689Z,21.56
2022-08-02T00:53:16.411Z,21.53
2022-08-02T00:55:43.135Z,21.54
2022-08-02T00:58:16.420Z,21.63
2022-08-02T01:00:43.321Z,21.56
2022-08-02T01:03:10.097Z,21.59
2022-08-02T01:05:55.848Z,21.53
2022-08-02T01:08:36.442Z,21.50
2022-08-02T01:11:09.428Z,21.45
2022-08-02T01:13:36.966Z,21.46
2022-08-02T01:16:21.429Z,21.41
2022-08-02T01:18:54.393Z,21.42
2022-08-02T01:21:45.426Z,21.42
2022-08-02T01:24:44.483Z,21.37
2022-08-02T01:27:36.429Z,21.36
2022-08-02T01:30:04.529Z,21.34
2022-08-02T01:32:43.414Z,21.33
2022-08-02T01:35:22.427Z,21.31
2022-08-02T01:37:58.951Z,21.32
2022-08-02T01:40:38.438Z,21.30
2022-08-02T01:43:07.460Z,21.22
2022-08-02T01:45:48.390Z,21.24
2022-08-02T01:48:16.883Z,21.22
2022-08-02T01:50:51.421Z,21.26
2022-08-02T01:53:21.915Z,21.22
2022-08-02T01:55:59.422Z,21.21
2022-08-02T01:58:34.707Z,21.11
2022-08-02T02:01:09.464Z,21.11
2022-08-02T02:03:44.010Z,21.07
2022-08-02T02:06:18.410Z,21.05
2022-08-02T02:08:52.410Z,21.05
2022-08-02T02:12:09.652Z,21.11
2022-08-02T02:14:17.891Z,21.12
2022-08-02T02:16:53.392Z,21.14
2022-08-02T02:19:22.764Z,21.17
2022-08-02T02:22:03.435Z,21.15
2022-08-02T02:24:36.874Z,21.11
2022-08-02T02:27:14.406Z,21.10
2022-08-02T02:29:45.485Z,21.10
2022-08-02T02:32:21.423Z,21.09
2022-08-02T02:34:57.413Z,21.15
2022-08-02T02:37:33.395Z,21.14
2022-08-02T02:40:00.870Z,21.12
2022-08-02T02:42:38.411Z,21.15
2022-08-02T02:45:10.662Z,21.28
2022-08-02T02:47:46.422Z,21.13
2022-08-02T02:50:13.711Z,20.73
2022-08-02T02:52:48.405Z,20.60
2022-08-02T02:55:24.400Z,20.43
2022-08-02T02:57:51.398Z,20.34
2022-08-02T03:00:25.405Z,20.32
2022-08-02T03:02:52.479Z,20.21
2022-08-02T03:05:19.837Z,20.03
2022-08-02T03:07:53.398Z,19.94
2022-08-02T03:10:20.303Z,19.93
2022-08-02T03:12:53.428Z,19.83
2022-08-02T03:15:22.156Z,19.72
2022-08-02T03:17:55.405Z,19.72
2022-08-02T03:20:29.431Z,19.90
2022-08-02T03:23:02.540Z,20.17
2022-08-02T03:25:35.395Z,19.99
2022-08-02T03:28:02.118Z,19.99
2022-08-02T03:30:35.394Z,19.91
2022-08-02T03:33:09.409Z,19.84
2022-08-02T03:35:42.395Z,19.82
2022-08-02T03:38:11.331Z,19.76
2022-08-02T03:40:45.414Z,19.76
2022-08-02T03:43:12.792Z,19.79
2022-08-02T03:45:50.412Z,19.89
2022-08-02T03:48:33.988Z,19.93
2022-08-02T03:51:09.394Z,19.97
2022-08-02T03:53:37.336Z,20.20
2022-08-02T03:56:12.409Z,20.35
2022-08-02T03:58:39.433Z,20.35
2022-08-02T04:01:06.328Z,20.14
2022-08-02T04:03:39.402Z,20.23
2022-08-02T04:06:13.398Z,20.01
2022-08-02T04:08:43.067Z,19.83
2022-08-02T04:11:34.435Z,19.78
2022-08-02T04:14:06.214Z,19.69
2022-08-02T04:17:01.394Z,19.63
2022-08-02T04:19:45.823Z,19.67
2022-08-02T04:22:32.387Z,19.67
2022-08-02T04:25:17.087Z,19.71
2022-08-02T04:28:17.379Z,19.73
2022-08-02T04:30:39.777Z,19.74
2022-08-02T04:33:14.369Z,19.83
2022-08-02T04:35:41.228Z,19.85
2022-08-02T04:38:15.381Z,19.89
2022-08-02T04:40:51.917Z,19.94
2022-08-02T04:43:27.407Z,20.00
2022-08-02T04:45:55.465Z,20.05
2022-08-02T04:48:30.373Z,20.03
2022-08-02T04:50:57.576Z,20.00
2022-08-02T04:53:31.385Z,19.97
2022-08-02T04:55:58.151Z,19.95
2022-08-02T04:58:40.754Z,20.00
2022-08-02T05:01:08.083Z,19.92
2022-08-02T05:03:41.403Z,19.98
2022-08-02T05:06:19.300Z,20.02
2022-08-02T05:08:54.401Z,20.06
2022-08-02T05:11:29.990Z,20.11
2022-08-02T05:14:11.375Z,20.14
2022-08-02T05:16:38.290Z,20.17
2022-08-02T05:19:11.778Z,20.20
2022-08-02T05:21:44.828Z,20.21
2022-08-02T05:24:18.562Z,20.23
2022-08-02T05:26:51.362Z,20.24
2022-08-02T05:29:18.110Z,20.24
2022-08-02T05:31:52.588Z,20.22
2022-08-02T05:34:19.453Z,20.24
2022-08-02T05:36:53.383Z,20.27
2022-08-02T05:39:20.294Z,20.31
2022-08-02T05:41:54.778Z,20.30
2022-08-02T05:44:21.551Z,20.32
2022-08-02T05:46:54.388Z,20.34
2022-08-02T05:49:27.425Z,20.36
2022-08-02T05:52:17.372Z,20.35
2022-08-02T05:54:58.383Z,20.37
2022-08-02T05:58:05.128Z,20.38
2022-08-02T06:00:42.399Z,20.38
2022-08-02T06:03:26.376Z,20.40
2022-08-02T06:06:05.491Z,20.41
2022-08-02T06:08:50.399Z,20.41
2022-08-02T06:11:21.877Z,20.43
2022-08-02T06:13:55.421Z,20.46
2022-08-02T06:16:32.521Z,20.49
2022-08-02T06:19:07.355Z,20.54
2022-08-02T06:22:33.030Z,20.53
2022-08-02T06:24:53.375Z,20.51
2022-08-02T06:27:21.849Z,20.57
2022-08-02T06:29:49.668Z,20.68
2022-08-02T06:32:26.432Z,20.81
2022-08-02T06:34:53.205Z,20.82
2022-08-02T06:37:32.433Z,20.84
2022-08-02T06:40:20.191Z,20.98
2022-08-02T06:43:19.396Z,21.00
2022-08-02T06:45:46.247Z,21.37
2022-08-02T06:48:20.367Z,21.37
2022-08-02T06:50:47.239Z,21.40
2022-08-02T06:53:20.392Z,21.40
2022-08-02T06:55:47.222Z,21.44
2022-08-02T06:58:14.695Z,21.53
2022-08-02T07:00:50.381Z,21.21
2022-08-02T07:03:24.428Z,21.04
2022-08-02T07:05:55.125Z,21.11
2022-08-02T07:08:29.384Z,21.35
2022-08-02T07:11:12.599Z,21.27
2022-08-02T07:13:46.877Z,21.10
2022-08-02T07:16:20.500Z,21.16
2022-08-02T07:18:47.337Z,21.23
2022-08-02T07:21:57.585Z,21.21
2022-08-02T07:24:13.473Z,21.15
2022-08-02T07:27:09.910Z,21.02
2022-08-02T07:29:45.960Z,20.98
2022-08-02T07:32:25.439Z,21.03
2022-08-02T07:34:54.262Z,20.99
2022-08-02T07:37:54.845Z,20.96
2022-08-02T07:40:30.369Z,20.97
2022-08-02T07:43:04.556Z,20.95
2022-08-02T07:45:54.244Z,21.00
2022-08-02T07:48:32.363Z,21.06
2022-08-02T07:51:05.355Z,21.17
2022-08-02T07:53:50.711Z,21.22
2022-08-02T07:56:19.099Z,21.22
2022-08-02T07:58:52.435Z,21.23
2022-08-02T08:01:19.861Z,21.27
2022-08-02T08:03:53.497Z,21.37
2022-08-02T08:06:20.386Z,21.43
2022-08-02T08:09:02.376Z,21.53
2022-08-02T08:11:29.171Z,21.59
2022-08-02T08:13:56.831Z,21.61
2022-08-02T08:16:32.374Z,21.63
2022-08-02T08:18:59.571Z,21.72
2022-08-02T08:21:32.355Z,21.77
2022-08-02T08:24:06.018Z,21.90
2022-08-02T08:26:39.359Z,21.92
2022-08-02T08:29:13.366Z,21.94
2022-08-02T08:31:40.211Z,21.97
2022-08-02T08:34:07.038Z,22.12
2022-08-02T08:36:41.562Z,22.23
2022-08-02T08:39:09.201Z,22.24
2022-08-02T08:41:43.357Z,22.28
2022-08-02T08:44:10.250Z,22.26
2022-08-02T08:46:39.145Z,22.38
2022-08-02T08:50:01.371Z,22.30
2022-08-02T08:52:35.387Z,22.32
2022-08-02T08:55:04.831Z,22.40
2022-08-02T08:57:41.354Z,22.52
2022-08-02T09:00:16.381Z,22.71
2022-08-02T09:02:44.062Z,22.79
2022-08-02T09:05:20.368Z,22.91
2022-08-02T09:08:20.221Z,22.77
2022-08-02T09:10:55.370Z,22.88
2022-08-02T09:13:44.729Z,22.91
2022-08-02T09:16:14.537Z,22.99
2022-08-02T09:18:51.360Z,22.96
2022-08-02T09:21:31.348Z,23.01
2022-08-02T09:24:19.335Z,23.00
2022-08-02T09:26:54.333Z,23.09
2022-08-02T09:29:25.289Z,23.17
2022-08-02T09:32:08.363Z,23.19
2022-08-02T09:34:45.003Z,23.27
2022-08-02T09:37:35.366Z,23.30
2022-08-02T09:40:03.931Z,23.24
2022-08-02T09:42:37.349Z,23.29
2022-08-02T09:45:05.667Z,23.18
2022-08-02T09:47:40.341Z,23.28
2022-08-02T09:50:15.151Z,23.33
2022-08-02T09:52:49.330Z,23.35
2022-08-02T09:55:22.357Z,23.37
2022-08-02T09:57:51.083Z,23.34
2022-08-02T10:00:43.537Z,23.33
2022-08-02T10:03:21.538Z,23.29
2022-08-02T10:06:02.958Z,23.37
2022-08-02T10:08:33.348Z,23.44
2022-08-02T10:11:08.342Z,23.50
2022-08-02T10:13:36.670Z,23.45
2022-08-02T10:16:12.349Z,23.41
2022-08-02T10:18:41.033Z,23.26
2022-08-02T10:21:37.372Z,23.05
2022-08-02T10:24:11.726Z,23.09
2022-08-02T10:26:49.329Z,23.10
2022-08-02T10:29:24.417Z,23.13
2022-08-02T10:32:05.322Z,23.17
2022-08-02T10:35:18.876Z,23.36
2022-08-02T10:37:53.253Z,23.31
2022-08-02T10:40:35.419Z,23.25
2022-08-02T10:43:09.433Z,23.24
2022-08-02T10:45:36.243Z,23.36
2022-08-02T10:48:21.348Z,23.42
2022-08-02T10:50:50.793Z,23.42
2022-08-02T10:53:40.347Z,23.33
2022-08-02T10:56:09.350Z,23.48
2022-08-02T10:58:42.331Z,23.40
2022-08-02T11:01:43.920Z,23.52
2022-08-02T11:04:17.330Z,23.60
2022-08-02T11:07:19.569Z,23.64
2022-08-02T11:09:54.333Z,23.61
2022-08-02T11:12:28.340Z,23.78
2022-08-02T11:15:01.440Z,23.68
2022-08-02T11:17:38.275Z,23.89
2022-08-02T11:20:11.020Z,24.01
2022-08-02T11:22:55.309Z,23.90
2022-08-02T11:25:21.903Z,23.86
2022-08-02T11:28:07.349Z,23.88
2022-08-02T11:30:34.859Z,23.97
2022-08-02T11:33:08.336Z,23.93
2022-08-02T11:35:38.258Z,24.11
2022-08-02T11:38:21.328Z,24.11
2022-08-02T11:40:49.408Z,24.20
2022-08-02T11:43:28.399Z,24.38
2022-08-02T11:45:57.306Z,24.44
2022-08-02T11:48:57.347Z,24.55
2022-08-02T11:51:25.198Z,24.54
2022-08-02T11:54:04.334Z,24.66
2022-08-02T11:56:35.123Z,24.59
2022-08-02T11:59:17.343Z,24.77
2022-08-02T12:01:46.395Z,24.85
2022-08-02T12:04:24.338Z,24.92
2022-08-02T12:06:58.344Z,24.91
2022-08-02T12:09:40.913Z,25.05
2022-08-02T12:12:08.201Z,25.14
2022-08-02T12:14:50.339Z,25.28
2022-08-02T12:17:47.626Z,25.34
2022-08-02T12:20:21.321Z,25.46
2022-08-02T12:23:01.321Z,25.21
2022-08-02T12:25:35.535Z,25.27
2022-08-02T12:28:29.348Z,25.60
2022-08-02T12:30:59.020Z,25.69
2022-08-02T12:33:39.283Z,25.96
2022-08-02T12:36:25.463Z,25.96
2022-08-02T12:39:04.336Z,25.95
2022-08-02T12:41:32.634Z,26.04
2022-08-02T12:44:07.330Z,26.08
2022-08-02T12:46:42.291Z,26.29
2022-08-02T12:49:26.366Z,26.53
2022-08-02T12:52:04.908Z,26.56
2022-08-02T12:54:48.992Z,26.75
2022-08-02T12:57:26.772Z,26.82
2022-08-02T12:59:54.074Z,26.94
2022-08-02T13:02:27.407Z,27.17
2022-08-02T13:04:54.226Z,27.53
2022-08-02T13:07:27.332Z,27.64
2022-08-02T13:10:02.651Z,28.00
2022-08-02T13:12:36.307Z,28.09
2022-08-02T13:15:03.987Z,28.25
2022-08-02T13:17:46.355Z,28.35
2022-08-02T13:20:17.106Z,28.53
2022-08-02T13:23:04.133Z,28.74
2022-08-02T13:25:37.534Z,28.77
2022-08-02T13:28:10.350Z,28.62
2022-08-02T13:30:37.340Z,28.56
2022-08-02T13:33:11.318Z,28.77
2022-08-02T13:35:38.365Z,28.91
2022-08-02T13:38:13.328Z,28.83
2022-08-02T13:41:05.436Z,28.88
2022-08-02T13:43:53.619Z,28.82
2022-08-02T13:46:31.742Z,28.98
2022-08-02T13:49:07.357Z,29.22
2022-08-02T13:51:41.634Z,29.22
2022-08-02T13:54:36.834Z,29.38
2022-08-02T13:57:14.486Z,29.23
2022-08-02T13:59:58.528Z,29.11
2022-08-02T14:02:40.328Z,29.10
2022-08-02T14:05:38.590Z,29.32
2022-08-02T14:08:16.911Z,29.41
2022-08-02T14:10:44.696Z,29.68
2022-08-02T14:13:12.019Z,29.92
2022-08-02T14:15:45.357Z,29.72
2022-08-02T14:18:14.101Z,29.45
2022-08-02T14:20:48.434Z,29.37
2022-08-02T14:23:50.797Z,29.21
2022-08-02T14:26:26.821Z,29.25
2022-08-02T14:29:01.358Z,29.36
2022-08-02T14:31:28.098Z,29.38
2022-08-02T14:34:01.312Z,29.37
2022-08-02T14:36:35.440Z,29.22
2022-08-02T14:39:02.480Z,29.22
2022-08-02T14:41:29.459Z,29.15
2022-08-02T14:44:11.314Z,29.07
2022-08-02T14:46:41.326Z,28.95
2022-08-02T14:49:25.716Z,28.81
2022-08-02T14:51:57.280Z,28.65
2022-08-02T14:54:35.327Z,28.31
2022-08-02T14:57:03.810Z,28.33
2022-08-02T14:59:37.320Z,28.33
2022-08-02T15:02:11.859Z,28.23
2022-08-02T15:04:48.326Z,28.15
2022-08-02T15:07:21.335Z,28.01
2022-08-02T15:09:48.236Z,27.91
2022-08-02T15:12:21.323Z,27.93
2022-08-02T15:14:47.991Z,27.99
2022-08-02T15:17:14.721Z,27.91
2022-08-02T15:19:59.333Z,27.90
2022-08-02T15:22:34.745Z,27.81
2022-08-02T15:25:14.891Z,27.73
2022-08-02T15:27:41.932Z,27.74
2022-08-02T15:30:15.322Z,27.71
2022-08-02T15:32:52.657Z,27.61
2022-08-02T15:35:20.671Z,27.55
2022-08-02T15:37:54.317Z,27.46
2022-08-02T15:40:21.860Z,27.44
2022-08-02T15:42:55.351Z,27.41
2022-08-02T15:45:29.317Z,27.39
2022-08-02T15:47:56.433Z,27.39
2022-08-02T15:50:23.370Z,27.44
2022-08-02T15:52:56.343Z,27.48
2022-08-02T15:55:29.317Z,27.56
2022-08-02T15:58:07.961Z,27.44
2022-08-02T16:00:50.452Z,27.55
2022-08-02T16:03:17.366Z,27.61
2022-08-02T16:05:51.341Z,27.59
2022-08-02T16:08:18.151Z,27.62
2022-08-02T16:10:51.322Z,27.52
2022-08-02T16:13:41.012Z,27.56
2022-08-02T16:16:31.303Z,27.65
2022-08-02T16:18:59.234Z,27.47
2022-08-02T16:21:33.318Z,27.54
2022-08-02T16:24:06.485Z,27.59
2022-08-02T16:26:47.339Z,27.55
2022-08-02T16:29:19.056Z,27.52
2022-08-02T16:31:47.147Z,27.54
2022-08-02T16:34:20.320Z,27.54
2022-08-02T16:36:47.064Z,27.51
2022-08-02T16:39:20.335Z,27.51
2022-08-02T16:41:52.813Z,27.53
2022-08-02T16:44:30.213Z,27.51
2022-08-02T16:47:06.350Z,27.56
2022-08-02T16:50:05.421Z,27.50
2022-08-02T16:52:27.326Z,27.47
2022-08-02T16:55:00.312Z,27.47
2022-08-02T16:57:43.431Z,27.50
2022-08-02T17:00:15.543Z,27.45
2022-08-02T17:02:50.321Z,27.47
2022-08-02T17:05:17.140Z,27.54
2022-08-02T17:08:08.735Z,27.60
2022-08-02T17:10:39.202Z,27.60
2022-08-02T17:13:27.308Z,27.63
2022-08-02T17:16:16.987Z,27.66
2022-08-02T17:18:54.316Z,27.64
2022-08-02T17:21:28.300Z,27.64
2022-08-02T17:24:07.627Z,27.48
2022-08-02T17:26:43.310Z,27.49
2022-08-02T17:29:16.015Z,27.56
2022-08-02T17:32:04.743Z,27.59
2022-08-02T17:34:40.296Z,27.46
2022-08-02T17:37:23.618Z,27.34
2022-08-02T17:39:57.308Z,27.17
2022-08-02T17:42:24.915Z,27.03
2022-08-02T17:45:06.852Z,26.89
2022-08-02T17:47:43.083Z,26.70
2022-08-02T17:50:36.345Z,26.60
2022-08-02T17:53:04.648Z,26.49
2022-08-02T17:55:42.436Z,26.43
2022-08-02T17:58:17.309Z,26.33
2022-08-02T18:00:44.934Z,26.24
2022-08-02T18:03:12.225Z,26.17
2022-08-02T18:05:55.356Z,26.06
2022-08-02T18:08:23.739Z,25.92
2022-08-02T18:11:00.328Z,25.83
2022-08-02T18:13:28.489Z,25.69
2022-08-02T18:16:06.316Z,25.62
2022-08-02T18:18:48.489Z,25.51
2022-08-02T18:21:24.307Z,25.42
2022-08-02T18:23:58.686Z,25.31
2022-08-02T18:26:33.551Z,25.18
2022-08-02T18:29:10.334Z,25.14
2022-08-02T18:31:40.175Z,25.09
2022-08-02T18:34:24.449Z,25.05
2022-08-02T18:36:58.411Z,24.99
2022-08-02T18:39:26.672Z,24.91
2022-08-02T18:42:06.295Z,24.86
2022-08-02T18:44:33.388Z,24.82
2022-08-02T18:47:00.453Z,24.77
2022-08-02T18:49:46.160Z,24.75
2022-08-02T18:52:15.389Z,24.68
2022-08-02T18:54:49.338Z,24.66
2022-08-02T18:58:17.625Z,24.57
2022-08-02T19:00:13.631Z,24.52
2022-08-02T19:02:40.553Z,24.46
2022-08-02T19:05:14.392Z,24.37
2022-08-02T19:07:50.911Z,24.32
2022-08-02T19:10:27.335Z,24.27
2022-08-02T19:12:54.174Z,24.22
2022-08-02T19:15:21.822Z,24.15
2022-08-02T19:17:57.056Z,24.12
2022-08-02T19:20:32.314Z,24.07
2022-08-02T19:23:08.505Z,24.03
2022-08-02T19:25:54.485Z,23.98
2022-08-02T19:28:30.456Z,23.94
2022-08-02T19:31:05.330Z,23.91
2022-08-02T19:34:05.829Z,23.88
2022-08-02T19:36:25.486Z,23.84
2022-08-02T19:38:55.568Z,23.81
2022-08-02T19:41:43.645Z,23.78
2022-08-02T19:44:23.044Z,23.76
2022-08-02T19:47:02.375Z,23.70
2022-08-02T19:49:39.366Z,23.64
2022-08-02T19:52:20.738Z,23.59
2022-08-02T19:54:54.444Z,23.58
2022-08-02T19:57:29.313Z,23.53
2022-08-02T20:00:01.931Z,23.50
2022-08-02T20:02:28.953Z,23.51
2022-08-02T20:05:16.033Z,23.48
2022-08-02T20:07:56.272Z,23.46
2022-08-02T20:13:16.326Z,23.37
2022-08-02T20:15:55.813Z,23.31
2022-08-02T20:18:30.305Z,23.29
2022-08-02T20:20:57.854Z,23.25
2022-08-02T20:23:38.279Z,23.21
2022-08-02T20:26:19.328Z,23.17
2022-08-02T20:28:48.739Z,23.17
2022-08-02T20:31:23.285Z,23.15
2022-08-02T20:33:55.884Z,23.10
2022-08-02T20:36:44.301Z,23.08
2022-08-02T20:39:42.979Z,22.99
2022-08-02T20:42:23.817Z,22.95
2022-08-02T20:45:01.279Z,22.87
2022-08-02T20:47:39.116Z,22.82
2022-08-02T20:50:30.438Z,22.82
2022-08-02T20:53:07.315Z,22.82
2022-08-02T20:55:42.286Z,22.83
2022-08-02T20:58:11.699Z,22.77
2022-08-02T21:00:46.294Z,22.65
2022-08-02T21:03:15.367Z,22.64
2022-08-02T21:05:54.880Z,22.64
2022-08-02T21:08:23.406Z,22.66
2022-08-02T21:10:58.267Z,22.65
2022-08-02T21:13:26.146Z,22.61
2022-08-02T21:16:02.612Z,22.57
2022-08-02T21:18:40.720Z,22.51
2022-08-02T21:21:16.510Z,22.48
2022-08-02T21:23:54.701Z,22.49
2022-08-02T21:26:35.335Z,22.44
2022-08-02T21:29:09.275Z,22.32
2022-08-02T21:31:42.319Z,22.24
2022-08-02T21:34:22.293Z,22.17
2022-08-02T21:37:01.265Z,22.11
2022-08-02T21:39:36.946Z,22.10
2022-08-02T21:42:10.434Z,22.09
2022-08-02T21:44:50.694Z,22.03
2022-08-02T21:47:31.316Z,22.00
2022-08-02T21:50:09.648Z,21.96
2022-08-02T21:52:52.021Z,21.90
2022-08-02T21:56:00.846Z,21.88
2022-08-02T21:58:12.875Z,21.81
2022-08-02T22:00:46.274Z,21.81
2022-08-02T22:03:22.562Z,21.80
2022-08-02T22:05:57.293Z,21.79
2022-08-02T22:08:24.994Z,21.76
2022-08-02T22:11:17.230Z,21.79
2022-08-02T22:13:47.747Z,21.79
2022-08-02T22:16:21.289Z,21.84
2022-08-02T22:18:52.507Z,21.85
2022-08-02T22:21:20.674Z,21.84
2022-08-02T22:23:56.293Z,21.83
2022-08-02T22:26:29.295Z,21.83
2022-08-02T22:28:59.486Z,21.84
2022-08-02T22:31:41.903Z,21.83
2022-08-02T22:34:38.309Z,21.82
2022-08-02T22:38:15.413Z,21.80
2022-08-02T22:40:08.969Z,21.78
2022-08-02T22:42:43.282Z,21.76
2022-08-02T22:45:10.825Z,21.75
2022-08-02T22:47:50.958Z,21.66
2022-08-02T22:53:12.515Z,21.66
2022-08-02T22:55:44.872Z,21.64
2022-08-02T22:58:19.514Z,21.60
2022-08-02T22:59:10.286Z,23.42
2022-08-02T23:00:47.553Z,21.57
2022-08-02T23:03:14.318Z,21.48
2022-08-02T23:05:48.277Z,21.49
2022-08-02T23:08:21.273Z,21.48
2022-08-02T23:10:54.324Z,21.50
2022-08-02T23:13:25.354Z,21.49
2022-08-02T23:16:20.285Z,21.46
2022-08-02T23:19:12.743Z,21.41
2022-08-02T23:22:02.619Z,21.38
2022-08-02T23:24:37.769Z,21.28
2022-08-02T23:27:17.295Z,21.27
2022-08-02T23:29:44.347Z,21.27
2022-08-02T23:32:18.538Z,21.26
2022-08-02T23:34:52.538Z,21.23
2022-08-02T23:37:26.311Z,21.24
2022-08-02T23:39:53.036Z,21.25
2022-08-02T23:42:26.312Z,21.26
2022-08-02T23:44:53.869Z,21.18
2022-08-02T23:47:27.288Z,21.16
2022-08-02T23:49:53.949Z,21.15
2022-08-02T23:52:27.268Z,21.18
2022-08-02T23:54:55.738Z,21.16
2022-08-02T23:57:22.503Z,21.17
2022-08-02T23:59:59.258Z,21.07
